Time;durP1;ratioP1;P1;durP2;ratioP2;P2;SDS_P1;SDS_P2;PMS_P1;PMS_P2;Temp;Humidity;BMP_temperature;BMP_pressure;BME280_temperature;BME280_humidity;BME280_pressure;Samples;Min_cycle;Max_cycle;Signal;HPM_P1;HPM_P2
2024/02/19 00:00:54;;;;;;;16.00;10.27;;;;;;;;;;5051883;28;20411;-75
2024/02/19 00:03:20;;;;;;;16.23;11.23;;;;;;;;;;5052033;28;20486;-80
2024/02/19 00:05:46;;;;;;;15.77;10.90;;;;;;;;;;5050279;28;20404;-76
2024/02/19 00:08:12;;;;;;;13.97;10.93;;;;;;;;;;5052818;28;20407;-76
2024/02/19 00:10:38;;;;;;;11.67;8.97;;;;;;;;;;5055516;28;20622;-77
2024/02/19 00:13:04;;;;;;;12.70;9.10;;;;;;;;;;5055855;28;20420;-78
2024/02/19 00:15:31;;;;;;;12.17;8.40;;;;;;;;;;5055511;28;20490;-76
2024/02/19 00:17:56;;;;;;;12.07;8.97;;;;;;;;;;5055498;28;20412;-77
2024/02/19 00:20:23;;;;;;;12.93;8.40;;;;;;;;;;5055539;28;20507;-77
2024/02/19 00:22:49;;;;;;;10.90;8.40;;;;;;;;;;5055036;28;20411;-77
2024/02/19 00:25:15;;;;;;;13.20;8.40;;;;;;;;;;5053997;28;20419;-77
2024/02/19 00:27:42;;;;;;;12.03;7.60;;;;;;;;;;5055238;28;20492;-77
2024/02/19 00:30:08;;;;;;;10.00;6.83;;;;;;;;;;5055189;28;20517;-82
2024/02/19 00:32:34;;;;;;;10.20;7.23;;;;;;;;;;5055228;28;20425;-77
2024/02/19 00:35:00;;;;;;;7.33;5.63;;;;;;;;;;5054965;28;20462;-77
2024/02/19 00:37:28;;;;;;;10.33;6.20;;;;;;;;;;5054819;28;20921;-77
2024/02/19 00:39:55;;;;;;;10.33;5.97;;;;;;;;;;5055005;28;20407;-77
2024/02/19 00:42:20;;;;;;;7.83;4.97;;;;;;;;;;5055034;28;20416;-77
2024/02/19 00:44:47;;;;;;;9.20;5.07;;;;;;;;;;5054971;28;20412;-80
2024/02/19 00:47:13;;;;;;;7.73;4.63;;;;;;;;;;5053681;28;20507;-77
2024/02/19 00:49:39;;;;;;;8.60;5.57;;;;;;;;;;5053608;28;20551;-77
2024/02/19 00:52:05;;;;;;;6.37;5.17;;;;;;;;;;5054624;28;20178;-77
2024/02/19 00:54:31;;;;;;;8.13;4.80;;;;;;;;;;5054881;28;20416;-77
2024/02/19 00:56:57;;;;;;;9.20;7.03;;;;;;;;;;5054557;28;20420;-77
2024/02/19 00:59:25;;;;;;;8.47;5.00;;;;;;;;;;5054675;28;20404;-77
2024/02/19 01:01:51;;;;;;;7.90;5.17;;;;;;;;;;5053357;28;20494;-78
2024/02/19 01:04:17;;;;;;;8.30;4.87;;;;;;;;;;5054618;28;20499;-79
2024/02/19 01:06:43;;;;;;;8.40;5.20;;;;;;;;;;5054210;28;20424;-77
2024/02/19 01:09:10;;;;;;;8.07;5.57;;;;;;;;;;5054528;28;20404;-78
2024/02/19 01:11:39;;;;;;;7.47;5.77;;;;;;;;;;5054455;28;20979;-77
2024/02/19 01:14:05;;;;;;;9.27;5.93;;;;;;;;;;5054480;28;20415;-77
2024/02/19 01:16:32;;;;;;;9.03;5.33;;;;;;;;;;5054411;28;20449;-78
2024/02/19 01:18:58;;;;;;;8.53;5.27;;;;;;;;;;5054021;28;20409;-77
2024/02/19 01:21:24;;;;;;;7.20;3.80;;;;;;;;;;5052668;28;20420;-80
2024/02/19 01:23:50;;;;;;;6.80;4.00;;;;;;;;;;5054322;28;20420;-80
2024/02/19 01:26:20;;;;;;;8.47;6.13;;;;;;;;;;5052972;28;20855;-77
2024/02/19 01:28:46;;;;;;;11.13;7.03;;;;;;;;;;5054127;28;20784;-83
2024/02/19 01:31:12;;;;;;;12.43;9.07;;;;;;;;;;5054063;28;20472;-80
2024/02/19 01:33:38;;;;;;;14.13;9.30;;;;;;;;;;5053750;28;20411;-77
2024/02/19 01:36:04;;;;;;;15.47;9.60;;;;;;;;;;5053664;28;20434;-78
2024/02/19 01:38:30;;;;;;;12.00;7.60;;;;;;;;;;5054081;28;20442;-79
2024/02/19 01:40:57;;;;;;;7.23;4.87;;;;;;;;;;5053956;28;20834;-79
2024/02/19 01:43:22;;;;;;;6.97;3.97;;;;;;;;;;5053953;28;20447;-77
2024/02/19 01:45:49;;;;;;;4.10;2.33;;;;;;;;;;5053989;28;20448;-79
2024/02/19 01:48:15;;;;;;;4.60;0.83;;;;;;;;;;5052615;28;20435;-77
2024/02/19 01:50:42;;;;;;;2.00;0.90;;;;;;;;;;5052134;28;20483;-76
2024/02/19 01:53:10;;;;;;;1.83;0.53;;;;;;;;;;5052510;28;21030;-77
2024/02/19 01:55:37;;;;;;;2.27;0.53;;;;;;;;;;5052514;28;20420;-76
2024/02/19 01:58:03;;;;;;;2.07;0.73;;;;;;;;;;5053793;28;20423;-75
2024/02/19 02:00:31;;;;;;;3.43;2.00;;;;;;;;;;5052514;28;20422;-75
2024/02/19 02:02:57;;;;;;;5.17;1.60;;;;;;;;;;5053591;28;20979;-76
2024/02/19 02:05:24;;;;;;;3.60;1.23;;;;;;;;;;5051998;28;20438;-78
2024/02/19 02:07:50;;;;;;;4.27;1.60;;;;;;;;;;5053458;28;20503;-77
2024/02/19 02:10:16;;;;;;;2.83;1.57;;;;;;;;;;5052149;28;20478;-77
2024/02/19 02:12:42;;;;;;;2.57;1.40;;;;;;;;;;5053432;28;20410;-77
2024/02/19 02:15:08;;;;;;;3.70;1.73;;;;;;;;;;5053352;28;20517;-77
2024/02/19 02:17:34;;;;;;;2.60;1.83;;;;;;;;;;5053377;28;20415;-78
2024/02/19 02:19:59;;;;;;;2.87;2.00;;;;;;;;;;5051770;28;20426;-79
2024/02/19 02:22:25;;;;;;;4.67;3.30;;;;;;;;;;5052860;28;20476;-77
2024/02/19 02:24:51;;;;;;;4.80;3.97;;;;;;;;;;5053203;28;20418;-78
2024/02/19 02:27:17;;;;;;;5.37;3.67;;;;;;;;;;5053242;28;20410;-78
2024/02/19 02:29:43;;;;;;;5.43;3.80;;;;;;;;;;5051823;28;20978;-77
2024/02/19 02:32:09;;;;;;;6.17;3.10;;;;;;;;;;5052386;28;20429;-79
2024/02/19 02:34:38;;;;;;;5.90;3.87;;;;;;;;;;5052882;28;20449;-77
2024/02/19 02:37:04;;;;;;;4.80;3.33;;;;;;;;;;5052649;28;20415;-79
2024/02/19 02:39:31;;;;;;;6.47;4.10;;;;;;;;;;5052973;28;20445;-78
2024/02/19 02:41:57;;;;;;;4.17;3.40;;;;;;;;;;5052962;28;20927;-77
2024/02/19 02:44:22;;;;;;;4.00;3.07;;;;;;;;;;5052810;28;20409;-78
2024/02/19 02:46:48;;;;;;;3.67;2.87;;;;;;;;;;5052897;28;20428;-77
2024/02/19 02:49:14;;;;;;;3.70;2.80;;;;;;;;;;5052872;28;20425;-77
2024/02/19 02:51:40;;;;;;;5.53;3.13;;;;;;;;;;5052344;28;20471;-79
2024/02/19 02:54:06;;;;;;;3.83;2.43;;;;;;;;;;5052791;28;20845;-78
2024/02/19 02:56:35;;;;;;;5.87;3.57;;;;;;;;;;5052702;28;20421;-77
2024/02/19 02:59:01;;;;;;;3.97;3.23;;;;;;;;;;5052687;28;20405;-77
2024/02/19 03:01:33;;;;;;;5.10;3.70;;;;;;;;;;5052587;28;20406;-77
2024/02/19 03:03:59;;;;;;;6.10;4.00;;;;;;;;;;5051342;28;20428;-76
2024/02/19 03:06:25;;;;;;;7.87;4.27;;;;;;;;;;5052201;28;20754;-77
2024/02/19 03:08:51;;;;;;;5.80;4.30;;;;;;;;;;5052603;28;20460;-79
2024/02/19 03:11:18;;;;;;;11.03;3.30;;;;;;;;;;5052586;28;20525;-77
2024/02/19 03:13:44;;;;;;;4.90;3.17;;;;;;;;;;5052512;28;20498;-79
2024/02/19 03:16:10;;;;;;;3.50;2.67;;;;;;;;;;5052544;28;20803;-78
2024/02/19 03:18:36;;;;;;;4.53;3.10;;;;;;;;;;5051241;28;20418;-77
2024/02/19 03:21:07;;;;;;;3.80;2.37;;;;;;;;;;5050882;28;20426;-77
2024/02/19 03:23:33;;;;;;;5.80;2.57;;;;;;;;;;5052117;28;20415;-77
2024/02/19 03:25:59;;;;;;;4.73;2.33;;;;;;;;;;5052334;28;20421;-77
2024/02/19 03:28:25;;;;;;;4.23;1.87;;;;;;;;;;5052439;28;20443;-78
2024/02/19 03:30:51;;;;;;;4.80;1.77;;;;;;;;;;5052339;28;20474;-77
2024/02/19 03:33:17;;;;;;;3.10;1.23;;;;;;;;;;5052392;28;20415;-78
2024/02/19 03:35:43;;;;;;;4.33;1.60;;;;;;;;;;5050478;28;20574;-77
2024/02/19 03:38:09;;;;;;;3.83;1.33;;;;;;;;;;5052323;28;20978;-77
2024/02/19 03:40:35;;;;;;;4.97;1.60;;;;;;;;;;5052299;28;20771;-78
2024/02/19 03:43:01;;;;;;;4.00;1.23;;;;;;;;;;5054774;28;20404;-80
2024/02/19 03:45:27;;;;;;;2.47;1.20;;;;;;;;;;5038619;28;20422;-77
2024/02/19 03:47:52;;;;;;;3.90;1.67;;;;;;;;;;5056138;28;20472;-78
2024/02/19 03:50:20;;;;;;;1.37;1.00;;;;;;;;;;5055507;28;20906;-77
2024/02/19 03:52:49;;;;;;;3.83;1.23;;;;;;;;;;5056054;28;20907;-77
2024/02/19 03:55:15;;;;;;;2.47;0.97;;;;;;;;;;5056050;28;20923;-78
2024/02/19 03:57:41;;;;;;;2.60;1.10;;;;;;;;;;5055921;28;20421;-78
2024/02/19 04:00:09;;;;;;;5.07;1.27;;;;;;;;;;5055976;28;20418;-77
2024/02/19 04:02:40;;;;;;;2.33;1.13;;;;;;;;;;5055969;28;20765;-78
2024/02/19 04:05:06;;;;;;;2.47;0.60;;;;;;;;;;5055576;28;20418;-77
2024/02/19 04:07:32;;;;;;;3.77;1.43;;;;;;;;;;5055996;28;20418;-78
2024/02/19 04:09:58;;;;;;;4.07;0.70;;;;;;;;;;5054525;28;20466;-77
2024/02/19 04:12:24;;;;;;;1.77;0.40;;;;;;;;;;5055703;28;20504;-77
2024/02/19 04:14:50;;;;;;;2.17;0.90;;;;;;;;;;5055709;28;20492;-77
2024/02/19 04:17:16;;;;;;;4.40;0.40;;;;;;;;;;5055677;28;20964;-75
2024/02/19 04:19:42;;;;;;;3.13;0.93;;;;;;;;;;5056109;28;20415;-76
2024/02/19 04:22:08;;;;;;;2.43;0.50;;;;;;;;;;5055361;28;20471;-77
2024/02/19 04:24:34;;;;;;;3.47;0.50;;;;;;;;;;5055468;28;20919;-77
2024/02/19 04:27:00;;;;;;;2.00;0.60;;;;;;;;;;5055439;28;20457;-77
2024/02/19 04:29:26;;;;;;;2.73;1.13;;;;;;;;;;5055298;28;20410;-77
2024/02/19 04:31:52;;;;;;;1.80;0.67;;;;;;;;;;5055295;28;20955;-77
2024/02/19 04:34:17;;;;;;;1.00;0.27;;;;;;;;;;5055142;28;20497;-77
2024/02/19 04:36:43;;;;;;;2.60;0.40;;;;;;;;;;5054297;28;20500;-77
2024/02/19 04:39:11;;;;;;;2.60;0.30;;;;;;;;;;5055315;28;20410;-77
2024/02/19 04:41:36;;;;;;;7.20;0.60;;;;;;;;;;5055276;28;20409;-78
2024/02/19 04:44:02;;;;;;;2.83;0.53;;;;;;;;;;5055207;28;20411;-77
2024/02/19 04:46:28;;;;;;;3.40;1.03;;;;;;;;;;5054953;28;20407;-77
2024/02/19 04:48:57;;;;;;;1.80;0.70;;;;;;;;;;5055035;28;20425;-76
2024/02/19 04:51:23;;;;;;;2.27;0.60;;;;;;;;;;5054584;28;20478;-76
2024/02/19 04:53:52;;;;;;;5.37;0.73;;;;;;;;;;5054110;28;20431;-76
2024/02/19 04:56:18;;;;;;;2.07;0.90;;;;;;;;;;5054883;28;20417;-77
2024/02/19 04:58:44;;;;;;;3.90;0.40;;;;;;;;;;5053523;28;20487;-77
2024/02/19 05:01:10;;;;;;;3.07;1.30;;;;;;;;;;5054774;28;20414;-80
2024/02/19 05:03:36;;;;;;;2.50;0.57;;;;;;;;;;5053335;28;20418;-77
2024/02/19 05:06:02;;;;;;;2.73;0.67;;;;;;;;;;5053072;28;20453;-77
2024/02/19 05:08:28;;;;;;;1.83;0.50;;;;;;;;;;5054720;28;20411;-77
2024/02/19 05:10:54;;;;;;;2.57;1.37;;;;;;;;;;5054519;28;20481;-78
2024/02/19 05:13:20;;;;;;;1.70;0.87;;;;;;;;;;5054518;28;20429;-78
2024/02/19 05:15:46;;;;;;;1.63;0.40;;;;;;;;;;5054459;28;20428;-79
2024/02/19 05:18:11;;;;;;;3.20;0.37;;;;;;;;;;5054389;28;20497;-80
2024/02/19 05:20:37;;;;;;;2.90;0.97;;;;;;;;;;5054001;28;20777;-77
2024/02/19 05:23:03;;;;;;;1.83;0.37;;;;;;;;;;5054317;28;20407;-77
2024/02/19 05:25:29;;;;;;;3.60;0.40;;;;;;;;;;5054374;28;20419;-77
2024/02/19 05:27:58;;;;;;;1.33;0.50;;;;;;;;;;5054228;28;20423;-78
2024/02/19 05:30:24;;;;;;;1.73;0.30;;;;;;;;;;5054184;28;20454;-77
2024/02/19 05:32:50;;;;;;;1.90;0.20;;;;;;;;;;5036599;28;20421;-77
2024/02/19 05:35:16;;;;;;;0.40;0.20;;;;;;;;;;5053570;28;20566;-77
2024/02/19 05:37:42;;;;;;;2.00;0.20;;;;;;;;;;5054006;28;20907;-79
2024/02/19 05:40:08;;;;;;;1.90;0.30;;;;;;;;;;5053998;28;20418;-77
2024/02/19 05:42:34;;;;;;;0.70;0.30;;;;;;;;;;5053958;28;20418;-77
2024/02/19 05:45:00;;;;;;;0.43;0.20;;;;;;;;;;5053910;28;20508;-77
2024/02/19 05:47:28;;;;;;;1.00;0.37;;;;;;;;;;5053903;28;20848;-77
2024/02/19 05:49:54;;;;;;;2.30;0.30;;;;;;;;;;5053386;28;20453;-78
2024/02/19 05:52:23;;;;;;;1.50;0.57;;;;;;;;;;5052537;28;20827;-77
2024/02/19 05:54:49;;;;;;;1.23;0.30;;;;;;;;;;5053468;28;20419;-78
2024/02/19 05:57:15;;;;;;;1.53;0.30;;;;;;;;;;5053645;28;20791;-78
2024/02/19 05:59:41;;;;;;;3.23;1.13;;;;;;;;;;5053498;28;20784;-77
2024/02/19 06:02:07;;;;;;;2.17;1.03;;;;;;;;;;5053497;28;20516;-77
2024/02/19 06:04:33;;;;;;;1.43;1.07;;;;;;;;;;5053467;28;20502;-79
2024/02/19 06:07:00;;;;;;;1.57;0.47;;;;;;;;;;5052285;28;20849;-77
2024/02/19 06:09:26;;;;;;;3.10;0.63;;;;;;;;;;5053397;28;20964;-77
2024/02/19 06:11:52;;;;;;;7.23;1.23;;;;;;;;;;5053047;28;20477;-78
2024/02/19 06:14:18;;;;;;;1.37;0.80;;;;;;;;;;5052302;28;20407;-78
2024/02/19 06:16:44;;;;;;;4.03;0.70;;;;;;;;;;5052936;28;20414;-77
2024/02/19 06:19:10;;;;;;;2.70;0.93;;;;;;;;;;5053322;28;20421;-77
2024/02/19 06:21:36;;;;;;;3.87;1.80;;;;;;;;;;5052514;28;20410;-78
2024/02/19 06:24:02;;;;;;;3.47;1.63;;;;;;;;;;5052262;28;20922;-77
2024/02/19 06:26:28;;;;;;;2.23;1.43;;;;;;;;;;5053123;28;20414;-78
2024/02/19 06:28:54;;;;;;;3.13;1.13;;;;;;;;;;5051900;28;20425;-78
2024/02/19 06:31:20;;;;;;;2.40;1.23;;;;;;;;;;5053079;28;20611;-77
2024/02/19 06:33:46;;;;;;;1.90;0.73;;;;;;;;;;5052883;28;20413;-77
2024/02/19 06:36:12;;;;;;;2.73;0.77;;;;;;;;;;5051719;28;20429;-77
2024/02/19 06:38:38;;;;;;;2.20;0.70;;;;;;;;;;5053031;28;20751;-77
2024/02/19 06:41:03;;;;;;;2.97;1.13;;;;;;;;;;5052673;28;20426;-77
2024/02/19 06:43:32;;;;;;;4.57;1.47;;;;;;;;;;5052892;28;20418;-78
2024/02/19 06:45:58;;;;;;;2.60;1.00;;;;;;;;;;5052659;28;20422;-76
2024/02/19 06:48:24;;;;;;;1.80;0.73;;;;;;;;;;5051418;28;20405;-77
2024/02/19 06:50:50;;;;;;;2.70;1.47;;;;;;;;;;5052254;28;20469;-82
2024/02/19 06:53:16;;;;;;;2.87;1.20;;;;;;;;;;5052617;28;20398;-78
2024/02/19 06:55:42;;;;;;;3.70;1.57;;;;;;;;;;5052671;28;20890;-77
2024/02/19 06:58:08;;;;;;;3.73;1.40;;;;;;;;;;5052637;28;20429;-77
2024/02/19 07:00:34;;;;;;;2.87;1.00;;;;;;;;;;5052572;28;20409;-77
2024/02/19 07:02:59;;;;;;;1.53;0.53;;;;;;;;;;5051270;28;20425;-77
2024/02/19 07:05:25;;;;;;;3.57;0.87;;;;;;;;;;5052219;28;20429;-82
2024/02/19 07:07:51;;;;;;;3.70;1.10;;;;;;;;;;5052642;28;20425;-81
2024/02/19 07:10:17;;;;;;;1.97;0.60;;;;;;;;;;5052531;28;20829;-77
2024/02/19 07:12:43;;;;;;;4.27;0.90;;;;;;;;;;5052534;28;20512;-78
2024/02/19 07:15:12;;;;;;;1.07;0.40;;;;;;;;;;5052450;28;20460;-77
2024/02/19 07:17:38;;;;;;;1.60;0.57;;;;;;;;;;5053186;28;20428;-78
2024/02/19 07:20:04;;;;;;;1.60;0.50;;;;;;;;;;5055255;28;20415;-76
2024/02/19 07:22:30;;;;;;;1.30;0.50;;;;;;;;;;5056766;28;20172;-76
2024/02/19 07:24:56;;;;;;;1.30;0.70;;;;;;;;;;5056595;28;21051;-76
2024/02/19 07:27:22;;;;;;;3.17;0.50;;;;;;;;;;5056527;28;20418;-76
2024/02/19 07:29:50;;;;;;;0.80;0.30;;;;;;;;;;5056462;28;20413;-77
2024/02/19 07:32:16;;;;;;;1.63;0.37;;;;;;;;;;5056474;28;20415;-75
2024/02/19 07:34:42;;;;;;;1.47;0.40;;;;;;;;;;5055723;28;20549;-76
2024/02/19 07:37:07;;;;;;;0.90;0.40;;;;;;;;;;5056283;28;20414;-75
2024/02/19 07:39:33;;;;;;;1.83;0.60;;;;;;;;;;5055033;28;20402;-76
2024/02/19 07:42:02;;;;;;;7.20;1.47;;;;;;;;;;5056297;28;20903;-76
2024/02/19 07:44:28;;;;;;;3.37;1.13;;;;;;;;;;5056075;28;20422;-77
2024/02/19 07:46:54;;;;;;;2.80;1.07;;;;;;;;;;5056084;28;20529;-76
2024/02/19 07:49:20;;;;;;;2.67;0.67;;;;;;;;;;5055641;28;20435;-77
2024/02/19 07:51:46;;;;;;;2.43;0.60;;;;;;;;;;5056001;28;20880;-77
2024/02/19 07:54:11;;;;;;;3.37;0.97;;;;;;;;;;5056059;28;20418;-77
2024/02/19 07:56:46;;;;;;;3.53;1.00;;;;;;;;;;5054657;28;20431;-77
2024/02/19 07:59:12;;;;;;;2.33;0.77;;;;;;;;;;5055921;28;20418;-76
2024/02/19 08:01:38;;;;;;;4.67;0.73;;;;;;;;;;5055848;28;20421;-76
2024/02/19 08:04:04;;;;;;;1.90;0.60;;;;;;;;;;5055686;28;20427;-76
2024/02/19 08:06:30;;;;;;;2.20;0.43;;;;;;;;;;5055513;28;20410;-77
2024/02/19 08:08:58;;;;;;;1.80;0.53;;;;;;;;;;5055502;28;20497;-76
2024/02/19 08:11:24;;;;;;;1.13;0.47;;;;;;;;;;5055667;28;20836;-76
2024/02/19 08:13:50;;;;;;;5.33;1.43;;;;;;;;;;5055630;28;20486;-76
2024/02/19 08:16:16;;;;;;;2.20;0.33;;;;;;;;;;5055578;28;20464;-75
2024/02/19 08:18:42;;;;;;;2.80;0.70;;;;;;;;;;5055589;28;20424;-76
2024/02/19 08:21:08;;;;;;;3.70;1.00;;;;;;;;;;5055233;28;20473;-76
2024/02/19 08:23:34;;;;;;;4.53;0.57;;;;;;;;;;5055561;28;20419;-76
2024/02/19 08:26:00;;;;;;;2.87;1.00;;;;;;;;;;5054185;28;20430;-76
2024/02/19 08:28:26;;;;;;;5.20;1.30;;;;;;;;;;5054508;28;20445;-76
2024/02/19 08:30:52;;;;;;;2.23;0.60;;;;;;;;;;5055118;28;20522;-76
2024/02/19 08:33:20;;;;;;;1.20;0.70;;;;;;;;;;5055261;28;20881;-76
2024/02/19 08:35:46;;;;;;;1.70;0.50;;;;;;;;;;5053581;28;20858;-76
2024/02/19 08:38:13;;;;;;;2.50;0.57;;;;;;;;;;5055245;28;20561;-77
2024/02/19 08:40:39;;;;;;;3.67;1.43;;;;;;;;;;5055194;28;20420;-76
2024/02/19 08:43:06;;;;;;;6.87;1.03;;;;;;;;;;5055171;28;20888;-75
2024/02/19 08:45:33;;;;;;;5.80;0.67;;;;;;;;;;5055169;28;20931;-76
2024/02/19 08:47:59;;;;;;;3.37;0.80;;;;;;;;;;5055164;28;20412;-75
2024/02/19 08:50:25;;;;;;;2.27;0.70;;;;;;;;;;5054549;28;20770;-75
2024/02/19 08:52:51;;;;;;;2.30;0.43;;;;;;;;;;5054892;28;20418;-76
2024/02/19 08:55:17;;;;;;;2.10;0.73;;;;;;;;;;5054890;28;20421;-78
2024/02/19 08:57:43;;;;;;;4.40;0.80;;;;;;;;;;5054834;28;20521;-77
2024/02/19 09:00:11;;;;;;;4.10;1.23;;;;;;;;;;5053495;28;20417;-76
2024/02/19 09:02:37;;;;;;;4.00;1.00;;;;;;;;;;5054880;28;20510;-76
2024/02/19 09:05:04;;;;;;;2.87;1.13;;;;;;;;;;5054390;28;20873;-76
2024/02/19 09:07:31;;;;;;;3.40;1.23;;;;;;;;;;5054681;28;20819;-76
2024/02/19 09:09:57;;;;;;;3.33;0.80;;;;;;;;;;5054553;28;20815;-76
2024/02/19 09:12:24;;;;;;;2.97;1.07;;;;;;;;;;5054462;28;20423;-76
2024/02/19 09:14:50;;;;;;;2.57;0.73;;;;;;;;;;5054519;28;21011;-75
2024/02/19 09:17:16;;;;;;;1.77;0.70;;;;;;;;;;5054548;28;20466;-75
2024/02/19 09:19:42;;;;;;;2.70;0.87;;;;;;;;;;5054077;28;20889;-76
2024/02/19 09:22:08;;;;;;;3.17;0.93;;;;;;;;;;5054379;28;20432;-76
2024/02/19 09:24:34;;;;;;;3.97;0.93;;;;;;;;;;5054255;28;20446;-75
2024/02/19 09:27:00;;;;;;;3.67;1.10;;;;;;;;;;5054295;28;20421;-75
2024/02/19 09:29:26;;;;;;;2.40;0.47;;;;;;;;;;5054260;28;20821;-76
2024/02/19 09:31:52;;;;;;;0.90;0.43;;;;;;;;;;5054071;28;20617;-76
2024/02/19 09:34:18;;;;;;;1.50;0.30;;;;;;;;;;5053641;28;20608;-76
2024/02/19 09:36:45;;;;;;;1.57;0.80;;;;;;;;;;5054022;28;20844;-78
2024/02/19 09:39:12;;;;;;;3.53;0.73;;;;;;;;;;5053990;28;20417;-78
2024/02/19 09:41:38;;;;;;;4.70;0.87;;;;;;;;;;5053800;28;20894;-76
2024/02/19 09:44:04;;;;;;;7.53;0.50;;;;;;;;;;5053964;28;20567;-78
2024/02/19 09:46:31;;;;;;;4.40;0.90;;;;;;;;;;5052561;28;20921;-77
2024/02/19 09:49:00;;;;;;;3.13;0.40;;;;;;;;;;5053532;28;20418;-75
2024/02/19 09:51:28;;;;;;;5.07;0.50;;;;;;;;;;5053669;28;20469;-76
2024/02/19 09:53:55;;;;;;;1.57;0.30;;;;;;;;;;5052768;28;20421;-77
2024/02/19 09:56:22;;;;;;;1.63;0.60;;;;;;;;;;5053546;28;20419;-77
2024/02/19 09:58:51;;;;;;;2.87;0.30;;;;;;;;;;5053563;28;20497;-76
2024/02/19 10:01:17;;;;;;;5.73;0.90;;;;;;;;;;5053309;28;20750;-77
2024/02/19 10:03:43;;;;;;;3.30;1.40;;;;;;;;;;5053575;28;20402;-79
2024/02/19 10:06:09;;;;;;;0.80;0.20;;;;;;;;;;5053142;28;20410;-76
2024/02/19 10:08:35;;;;;;;4.27;0.57;;;;;;;;;;5053437;28;20763;-79
2024/02/19 10:11:08;;;;;;;2.23;0.37;;;;;;;;;;5053343;28;20474;-81
2024/02/19 10:13:36;;;;;;;2.70;0.40;;;;;;;;;;5053450;28;20436;-76
2024/02/19 10:16:02;;;;;;;5.23;0.77;;;;;;;;;;5053369;28;20917;-81
2024/02/19 10:18:28;;;;;;;3.87;0.40;;;;;;;;;;5052907;28;20401;-80
2024/02/19 10:20:55;;;;;;;5.07;1.43;;;;;;;;;;5053205;28;20423;-80
2024/02/19 10:23:22;;;;;;;4.40;0.80;;;;;;;;;;5053452;28;20495;-77
2024/02/19 10:25:48;;;;;;;3.47;1.23;;;;;;;;;;5053371;28;20422;-79
2024/02/19 10:28:14;;;;;;;3.73;0.50;;;;;;;;;;5053270;28;20418;-82
2024/02/19 10:30:40;;;;;;;4.07;0.93;;;;;;;;;;5053394;28;20488;-84
2024/02/19 10:33:06;;;;;;;2.70;0.57;;;;;;;;;;5053312;28;20410;-79
2024/02/19 10:35:32;;;;;;;3.00;0.93;;;;;;;;;;5052925;28;20515;-85
2024/02/19 10:38:01;;;;;;;3.43;1.00;;;;;;;;;;5053255;28;20499;-79
2024/02/19 10:40:30;;;;;;;4.93;1.40;;;;;;;;;;5053086;28;20423;-81
2024/02/19 10:43:00;;;;;;;5.13;0.93;;;;;;;;;;5053229;28;20411;-83
2024/02/19 10:45:26;;;;;;;3.80;0.50;;;;;;;;;;5053241;28;20412;-84
2024/02/19 10:47:53;;;;;;;4.60;0.57;;;;;;;;;;5053239;28;20411;-83
2024/02/19 10:50:20;;;;;;;3.43;0.67;;;;;;;;;;5052747;28;20458;-82
2024/02/19 10:52:46;;;;;;;4.83;1.13;;;;;;;;;;5052677;28;20493;-84
2024/02/19 10:55:13;;;;;;;2.30;0.67;;;;;;;;;;5053121;28;20406;-80
2024/02/19 10:57:48;;;;;;;4.53;1.20;;;;;;;;;;5053187;28;20457;-79
2024/02/19 11:00:14;;;;;;;4.00;0.70;;;;;;;;;;5053062;28;20414;-82
2024/02/19 11:02:40;;;;;;;4.20;0.90;;;;;;;;;;5053115;28;20456;-78
2024/02/19 11:05:10;;;;;;;4.10;0.20;;;;;;;;;;5052312;28;20416;-83
2024/02/19 11:07:36;;;;;;;8.17;1.27;;;;;;;;;;5052617;28;20419;-77
2024/02/19 11:10:05;;;;;;;6.90;0.70;;;;;;;;;;5052424;28;20467;-79
2024/02/19 11:12:31;;;;;;;5.80;0.60;;;;;;;;;;5052365;28;20426;-78
2024/02/19 11:14:57;;;;;;;2.70;0.80;;;;;;;;;;5052480;28;20418;-77
2024/02/19 11:17:23;;;;;;;2.70;0.27;;;;;;;;;;5052489;28;20420;-78
2024/02/19 11:19:52;;;;;;;2.90;1.03;;;;;;;;;;5052211;28;20450;-78
2024/02/19 11:22:22;;;;;;;4.10;0.30;;;;;;;;;;5052654;28;20408;-83
2024/02/19 11:24:50;;;;;;;1.97;0.60;;;;;;;;;;5052540;28;20406;-78
2024/02/19 11:27:16;;;;;;;7.30;1.60;;;;;;;;;;5052541;28;20414;-78
2024/02/19 11:29:42;;;;;;;4.33;1.53;;;;;;;;;;5052377;28;20420;-81
2024/02/19 11:32:09;;;;;;;6.93;1.70;;;;;;;;;;5052553;28;20423;-83
2024/02/19 11:34:35;;;;;;;5.97;1.23;;;;;;;;;;5050664;28;20511;-76
2024/02/19 11:37:11;;;;;;;8.30;2.07;;;;;;;;;;5052350;28;20503;-83
2024/02/19 11:39:39;;;;;;;7.50;1.33;;;;;;;;;;5052472;28;20971;-80
2024/02/19 11:42:09;;;;;;;6.40;2.07;;;;;;;;;;5052108;28;20913;-78
2024/02/19 11:44:35;;;;;;;6.10;1.67;;;;;;;;;;5050978;28;20412;-83
2024/02/19 11:47:02;;;;;;;8.20;2.03;;;;;;;;;;5052307;28;20447;-85
2024/02/19 11:49:29;;;;;;;6.03;1.30;;;;;;;;;;5051934;28;20422;-79
2024/02/19 11:51:55;;;;;;;5.27;1.37;;;;;;;;;;5050764;28;20480;-82
2024/02/19 11:54:21;;;;;;;12.50;2.13;;;;;;;;;;5052075;28;20896;-79
2024/02/19 11:56:51;;;;;;;5.93;1.43;;;;;;;;;;5052082;28;20458;-78
2024/02/19 11:59:17;;;;;;;5.47;1.60;;;;;;;;;;5051887;28;20989;-76
2024/02/19 12:01:44;;;;;;;5.07;0.93;;;;;;;;;;5051731;28;20419;-77
2024/02/19 12:04:11;;;;;;;3.57;0.80;;;;;;;;;;5053905;28;20978;-78
2024/02/19 12:06:37;;;;;;;5.77;0.90;;;;;;;;;;5055608;28;20415;-78
2024/02/19 12:09:03;;;;;;;3.30;0.67;;;;;;;;;;5054341;28;20419;-77
2024/02/19 12:11:29;;;;;;;2.13;0.40;;;;;;;;;;5055497;28;20824;-78
2024/02/19 12:13:55;;;;;;;2.60;0.63;;;;;;;;;;5055709;28;20404;-77
2024/02/19 12:16:25;;;;;;;5.67;0.77;;;;;;;;;;5055702;28;20408;-78
2024/02/19 12:18:51;;;;;;;6.40;1.00;;;;;;;;;;5055272;28;20408;-78
2024/02/19 12:21:17;;;;;;;4.50;0.90;;;;;;;;;;5055595;28;20958;-78
2024/02/19 12:23:43;;;;;;;4.80;1.07;;;;;;;;;;5055490;28;20896;-77
2024/02/19 12:26:10;;;;;;;3.20;1.07;;;;;;;;;;5055534;28;20785;-77
2024/02/19 12:28:38;;;;;;;3.33;0.60;;;;;;;;;;5054892;28;20430;-77
2024/02/19 12:31:04;;;;;;;3.93;0.73;;;;;;;;;;5055300;28;20471;-77
2024/02/19 12:33:31;;;;;;;4.63;0.70;;;;;;;;;;5053682;28;20426;-77
2024/02/19 12:35:57;;;;;;;3.40;0.97;;;;;;;;;;5055283;28;20432;-80
2024/02/19 12:38:22;;;;;;;5.97;0.93;;;;;;;;;;5055130;28;20886;-76
2024/02/19 12:40:48;;;;;;;5.17;0.70;;;;;;;;;;5055176;28;20174;-77
2024/02/19 12:43:14;;;;;;;2.93;0.47;;;;;;;;;;5055111;28;20169;-76
2024/02/19 12:45:40;;;;;;;5.17;0.87;;;;;;;;;;5055011;28;20185;-77
2024/02/19 12:48:06;;;;;;;3.40;0.43;;;;;;;;;;5055053;28;20176;-77
2024/02/19 12:50:33;;;;;;;7.37;1.13;;;;;;;;;;5054579;28;20486;-77
2024/02/19 12:53:02;;;;;;;5.30;0.70;;;;;;;;;;5054951;28;20510;-77
2024/02/19 12:55:28;;;;;;;4.57;1.20;;;;;;;;;;5054808;28;20411;-76
2024/02/19 12:57:54;;;;;;;2.93;0.57;;;;;;;;;;5054994;28;20423;-77
2024/02/19 13:00:20;;;;;;;3.77;0.67;;;;;;;;;;5054820;28;20928;-76
2024/02/19 13:02:46;;;;;;;4.33;0.50;;;;;;;;;;5054867;28;20417;-82
2024/02/19 13:05:12;;;;;;;4.43;1.00;;;;;;;;;;5054495;28;20170;-78
2024/02/19 13:07:39;;;;;;;2.00;0.33;;;;;;;;;;5054738;28;20691;-79
2024/02/19 13:10:06;;;;;;;8.10;1.60;;;;;;;;;;5053512;28;20592;-80
2024/02/19 13:12:32;;;;;;;3.47;0.53;;;;;;;;;;5054997;28;20920;-84
2024/02/19 13:14:59;;;;;;;3.50;0.40;;;;;;;;;;5054260;28;20462;-83
2024/02/19 13:17:25;;;;;;;4.60;0.60;;;;;;;;;;5054937;28;20835;-78
2024/02/19 13:19:51;;;;;;;6.33;0.73;;;;;;;;;;5054327;28;20992;-79
2024/02/19 13:22:17;;;;;;;5.13;0.83;;;;;;;;;;5054591;28;20421;-79
2024/02/19 13:24:43;;;;;;;3.07;0.60;;;;;;;;;;5054747;28;20450;-79
2024/02/19 13:27:09;;;;;;;4.30;0.63;;;;;;;;;;5054688;28;20416;-81
2024/02/19 13:29:35;;;;;;;3.90;0.53;;;;;;;;;;5053461;28;20924;-79
2024/02/19 13:32:01;;;;;;;4.57;0.70;;;;;;;;;;5054554;28;20971;-81
2024/02/19 13:34:27;;;;;;;4.80;0.83;;;;;;;;;;5053938;28;20850;-83
2024/02/19 13:36:54;;;;;;;6.33;0.83;;;;;;;;;;5054553;28;20498;-84
2024/02/19 13:39:20;;;;;;;5.13;0.77;;;;;;;;;;5054673;28;20931;-85
2024/02/19 13:41:47;;;;;;;6.27;0.63;;;;;;;;;;5054354;28;20414;-83
2024/02/19 13:44:13;;;;;;;8.30;1.10;;;;;;;;;;5054395;28;20412;-84
2024/02/19 13:46:44;;;;;;;5.90;1.00;;;;;;;;;;5054419;28;20770;-79
2024/02/19 13:49:10;;;;;;;6.10;0.43;;;;;;;;;;5054002;28;20455;-79
2024/02/19 13:51:36;;;;;;;6.00;1.77;;;;;;;;;;5054038;28;20478;-79
2024/02/19 13:54:02;;;;;;;10.17;2.03;;;;;;;;;;5054273;28;20489;-80
2024/02/19 13:56:31;;;;;;;7.63;1.57;;;;;;;;;;5054185;28;20431;-81
2024/02/19 13:58:57;;;;;;;6.57;1.57;;;;;;;;;;5054297;28;20412;-81
2024/02/19 14:01:23;;;;;;;7.20;1.40;;;;;;;;;;5052967;28;20421;-84
2024/02/19 14:03:49;;;;;;;6.73;1.20;;;;;;;;;;5052791;28;20513;-83
2024/02/19 14:06:16;;;;;;;4.47;1.30;;;;;;;;;;5054382;28;20177;-81
2024/02/19 14:08:42;;;;;;;8.47;1.50;;;;;;;;;;5054198;28;20409;-86
2024/02/19 14:11:08;;;;;;;3.50;0.77;;;;;;;;;;5054128;28;20979;-85
2024/02/19 14:13:34;;;;;;;6.30;1.20;;;;;;;;;;5053894;28;20416;-79
2024/02/19 14:16:01;;;;;;;3.27;0.80;;;;;;;;;;5053900;28;20466;-79
2024/02/19 14:18:30;;;;;;;6.17;1.00;;;;;;;;;;5053559;28;20406;-81
2024/02/19 14:20:56;;;;;;;3.53;1.07;;;;;;;;;;5053893;28;20421;-84
2024/02/19 14:23:23;;;;;;;4.83;0.70;;;;;;;;;;5053827;28;20401;-78
2024/02/19 14:25:49;;;;;;;6.63;0.57;;;;;;;;;;5053571;28;20836;-81
2024/02/19 14:28:16;;;;;;;6.17;2.50;;;;;;;;;;5053411;28;20404;-82
2024/02/19 14:30:42;;;;;;;7.03;1.20;;;;;;;;;;5053691;28;20452;-80
2024/02/19 14:33:08;;;;;;;2.30;0.60;;;;;;;;;;5054005;28;20438;-80
2024/02/19 14:35:34;;;;;;;2.07;0.47;;;;;;;;;;5052333;28;20467;-83
2024/02/19 14:38:01;;;;;;;2.70;0.90;;;;;;;;;;5052361;28;20419;-82